Time;durP1;ratioP1;P1;durP2;ratioP2;P2;SDS_P1;SDS_P2;PMS_P1;PMS_P2;Temp;Humidity;BMP_temperature;BMP_pressure;BME280_temperature;BME280_humidity;BME280_pressure;Samples;Min_cycle;Max_cycle;Signal;HPM_P1;HPM_P2
2022/06/16 00:00:35;;;;;;;8.17;4.80;;;;;;;24.10;38.91;97413.94;5050954;28;20183;-71
2022/06/16 00:03:02;;;;;;;5.73;4.43;;;;;;;24.06;38.67;97419.78;5051376;28;20861;-71
2022/06/16 00:05:33;;;;;;;6.60;5.00;;;;;;;24.07;38.51;97416.03;5046875;28;20417;-71
2022/06/16 00:07:59;;;;;;;6.43;4.60;;;;;;;24.06;38.81;97414.41;5050888;28;20509;-72
2022/06/16 00:10:25;;;;;;;6.10;5.27;;;;;;;24.03;38.67;97408.69;5057815;28;20453;-72
2022/06/16 00:12:50;;;;;;;6.40;4.47;;;;;;;24.05;38.74;97422.66;5053596;28;20195;-73
2022/06/16 00:15:21;;;;;;;5.80;4.43;;;;;;;23.98;38.90;97414.75;5044099;28;20233;-71
2022/06/16 00:17:47;;;;;;;7.20;5.30;;;;;;;23.98;38.98;97412.09;5049612;28;20261;-71
2022/06/16 00:20:13;;;;;;;5.70;4.87;;;;;;;23.96;39.01;97419.53;5050847;28;20448;-71
2022/06/16 00:22:39;;;;;;;7.70;5.17;;;;;;;23.91;39.15;97408.69;5050895;28;20202;-72
2022/06/16 00:25:05;;;;;;;10.20;5.90;;;;;;;23.86;39.13;97413.91;5050437;28;20579;-71
2022/06/16 00:27:31;;;;;;;11.77;4.93;;;;;;;23.84;39.19;97419.50;5050553;28;20190;-70
2022/06/16 00:29:57;;;;;;;9.60;4.93;;;;;;;23.81;39.18;97411.94;5050512;28;20422;-71
2022/06/16 00:32:23;;;;;;;8.57;5.37;;;;;;;23.80;39.17;97406.84;5052231;28;20198;-72
2022/06/16 00:34:48;;;;;;;5.77;4.57;;;;;;;23.80;39.27;97406.84;5051620;28;20790;-72
2022/06/16 00:37:14;;;;;;;8.30;5.30;;;;;;;23.80;39.23;97404.16;5051849;28;20266;-72
2022/06/16 00:39:40;;;;;;;8.77;4.90;;;;;;;23.80;39.02;97398.81;5050709;28;20182;-72
2022/06/16 00:42:10;;;;;;;8.23;5.10;;;;;;;23.81;39.00;97403.13;5046969;28;20670;-71
2022/06/16 00:44:37;;;;;;;11.17;4.67;;;;;;;23.83;38.94;97403.69;5058615;28;20555;-72
2022/06/16 00:47:03;;;;;;;4.80;4.30;;;;;;;23.81;39.16;97400.44;5048687;28;20491;-72
2022/06/16 00:49:29;;;;;;;5.30;4.80;;;;;;;23.78;39.33;97397.19;5054831;28;20482;-72
2022/06/16 00:52:00;;;;;;;6.07;4.50;;;;;;;23.74;39.50;97400.56;5036510;28;20466;-71
2022/06/16 00:54:30;;;;;;;6.03;4.73;;;;;;;23.65;39.56;97402.75;5053117;28;20248;-71
2022/06/16 00:57:02;;;;;;;5.27;4.40;;;;;;;23.56;39.60;97399.59;5052958;28;20422;-71
2022/06/16 00:59:27;;;;;;;5.33;4.20;;;;;;;23.55;39.40;97395.31;5050389;28;20444;-71
2022/06/16 01:01:53;;;;;;;5.13;4.60;;;;;;;23.55;39.47;97394.50;5054244;28;20528;-71
2022/06/16 01:07:08;;;;;;;5.50;4.80;;;;;;;23.56;39.41;97388.09;5053620;28;20183;-71
2022/06/16 01:09:34;;;;;;;6.37;4.87;;;;;;;23.55;39.33;97386.47;5052953;28;20443;-72
2022/06/16 01:15:30;;;;;;;5.47;4.30;;;;;;;23.51;39.59;97401.34;5051199;28;20198;-71
2022/06/16 01:18:02;;;;;;;4.33;3.97;;;;;;;23.47;39.45;97395.66;5050503;28;20421;-72
2022/06/16 01:20:52;;;;;;;5.63;4.67;;;;;;;23.40;39.78;97387.75;5045059;28;20432;-71
2022/06/16 01:23:56;;;;;;;6.47;5.00;;;;;;;23.41;39.67;97392.03;5052637;28;20437;-69
2022/06/16 01:26:28;;;;;;;4.83;4.43;;;;;;;23.42;39.52;97393.66;5044486;28;20436;-69
2022/06/16 01:29:12;;;;;;;6.70;4.83;;;;;;;23.35;39.23;97382.25;5054367;28;20466;-70
2022/06/16 01:31:56;;;;;;;4.80;4.40;;;;;;;23.36;39.37;97383.09;5047272;28;20517;-71
2022/06/16 01:34:46;;;;;;;6.33;4.30;;;;;;;23.34;39.26;97379.81;5053184;28;20464;-70
2022/06/16 01:37:22;;;;;;;8.40;4.23;;;;;;;23.38;39.84;97383.63;5049991;28;20428;-72
2022/06/16 01:40:09;;;;;;;5.57;4.00;;;;;;;23.43;39.85;97387.28;5052424;28;20421;-69
2022/06/16 01:42:40;;;;;;;4.40;4.00;;;;;;;23.51;39.99;97382.63;5051492;28;20444;-70
2022/06/16 01:45:17;;;;;;;7.53;3.90;;;;;;;23.45;40.22;97382.50;5051962;28;20426;-70
2022/06/16 01:47:50;;;;;;;5.53;4.23;;;;;;;23.43;40.10;97378.44;5048825;28;20437;-69
2022/06/16 01:50:21;;;;;;;6.40;3.63;;;;;;;23.39;40.23;97377.25;5034027;28;20888;-70
2022/06/16 01:52:50;;;;;;;5.10;4.20;;;;;;;23.34;40.14;97369.94;5052544;28;20456;-70
2022/06/16 01:55:24;;;;;;;6.53;4.30;;;;;;;23.28;39.78;97373.53;5051803;28;20432;-69
2022/06/16 01:58:02;;;;;;;5.40;3.87;;;;;;;23.23;40.17;97366.22;5051422;28;20432;-70
2022/06/16 02:00:28;;;;;;;5.20;3.57;;;;;;;23.20;40.02;97369.34;5053531;28;20854;-70
2022/06/16 02:03:02;;;;;;;3.53;3.23;;;;;;;23.22;40.13;97367.25;5052202;28;20475;-68
2022/06/16 02:05:34;;;;;;;4.00;3.70;;;;;;;23.25;40.46;97364.09;5051251;28;20261;-70
2022/06/16 02:08:13;;;;;;;4.03;3.60;;;;;;;23.31;40.12;97365.06;5031645;28;20533;-70
2022/06/16 02:10:42;;;;;;;4.20;3.47;;;;;;;23.29;40.03;97361.81;5052025;28;20483;-71
2022/06/16 02:13:10;;;;;;;5.70;4.10;;;;;;;23.23;40.00;97368.06;5049123;28;20449;-71
2022/06/16 02:16:00;;;;;;;4.33;3.93;;;;;;;23.16;39.88;97363.63;5053006;28;20425;-70
2022/06/16 02:18:28;;;;;;;5.90;3.70;;;;;;;23.16;39.78;97358.28;5051137;28;20917;-71
2022/06/16 02:21:19;;;;;;;7.53;4.40;;;;;;;23.15;39.94;97356.63;5042085;28;20430;-71
2022/06/16 02:23:45;;;;;;;4.27;3.20;;;;;;;23.21;39.85;97359.44;5047570;28;20768;-70
2022/06/16 02:26:10;;;;;;;4.20;3.73;;;;;;;23.25;39.32;97363.31;5052789;28;20441;-71
2022/06/16 02:28:42;;;;;;;4.20;3.20;;;;;;;23.29;39.14;97359.94;5052509;28;20554;-70
2022/06/16 02:31:29;;;;;;;5.37;3.20;;;;;;;23.33;39.36;97354.13;5052701;28;20207;-69
2022/06/16 02:34:03;;;;;;;4.13;2.90;;;;;;;23.38;39.17;97348.88;5052346;28;20434;-71
2022/06/16 02:36:43;;;;;;;7.97;3.60;;;;;;;23.35;39.07;97349.38;5054473;28;20412;-70
2022/06/16 02:39:19;;;;;;;6.33;3.43;;;;;;;23.29;38.94;97353.78;5050983;28;20513;-72
2022/06/16 02:42:01;;;;;;;5.20;3.60;;;;;;;23.21;39.40;97343.41;5022276;28;20440;-70
2022/06/16 02:44:43;;;;;;;6.10;3.60;;;;;;;23.10;39.69;97347.69;5052256;28;20433;-71
2022/06/16 02:47:19;;;;;;;5.53;4.40;;;;;;;23.05;39.68;97347.53;5049726;28;20487;-71
2022/06/16 02:49:50;;;;;;;7.27;5.50;;;;;;;23.01;39.86;97339.97;5050968;28;20440;-71
2022/06/16 02:52:34;;;;;;;6.27;4.60;;;;;;;23.05;39.92;97344.88;5052302;28;20453;-71
2022/06/16 02:55:05;;;;;;;6.50;4.13;;;;;;;23.10;39.58;97345.81;5051132;28;20942;-71
2022/06/16 02:57:36;;;;;;;5.00;3.97;;;;;;;23.16;39.29;97346.75;5044013;28;20847;-71
2022/06/16 03:00:09;;;;;;;4.57;4.03;;;;;;;23.16;39.54;97347.56;5050639;28;20836;-72
2022/06/16 03:02:37;;;;;;;5.33;4.83;;;;;;;23.09;39.25;97346.84;5043655;28;20445;-71
2022/06/16 03:05:05;;;;;;;8.47;5.40;;;;;;;23.01;39.53;97348.00;5032234;28;20433;-70
2022/06/16 03:07:33;;;;;;;6.63;5.17;;;;;;;22.96;39.74;97352.41;5050458;28;20434;-72
2022/06/16 03:10:00;;;;;;;6.17;5.10;;;;;;;22.90;40.06;97354.13;5064549;28;20694;-71
2022/06/16 03:12:25;;;;;;;7.23;5.47;;;;;;;22.82;40.07;97346.44;5058122;28;20465;-71
2022/06/16 03:14:51;;;;;;;7.00;4.50;;;;;;;22.79;40.17;97337.03;5057307;28;20937;-70
2022/06/16 03:17:17;;;;;;;11.53;5.07;;;;;;;22.76;40.15;97339.31;5063941;28;20191;-70
2022/06/16 03:19:43;;;;;;;7.53;5.30;;;;;;;22.72;39.99;97338.97;5063866;28;20185;-71
2022/06/16 03:22:09;;;;;;;7.20;4.83;;;;;;;22.70;40.30;97336.53;5051459;28;20211;-71
2022/06/16 03:24:34;;;;;;;7.23;5.20;;;;;;;22.77;40.49;97343.63;5050687;28;20206;-70
2022/06/16 03:27:00;;;;;;;5.80;4.07;;;;;;;22.79;40.09;97345.03;5055872;28;20416;-72
2022/06/16 03:29:26;;;;;;;6.90;4.40;;;;;;;22.77;40.27;97347.13;5060702;28;20223;-70
2022/06/16 03:31:52;;;;;;;4.57;3.77;;;;;;;22.75;40.33;97357.22;5066697;28;20217;-71
2022/06/16 03:34:18;;;;;;;5.17;4.50;;;;;;;22.78;40.62;97351.44;5054481;28;20280;-71
2022/06/16 03:36:44;;;;;;;5.63;4.50;;;;;;;22.76;40.64;97350.84;5058580;28;20593;-71
2022/06/16 03:39:09;;;;;;;7.23;5.60;;;;;;;22.69;40.45;97363.47;5063746;28;20186;-70
2022/06/16 03:41:35;;;;;;;11.63;4.90;;;;;;;22.57;40.22;97359.94;5062360;28;20201;-71
2022/06/16 03:44:00;;;;;;;5.57;4.83;;;;;;;22.58;40.27;97351.69;5062112;28;20171;-70
2022/06/16 03:46:26;;;;;;;5.20;4.27;;;;;;;22.64;39.77;97363.34;5060273;28;20240;-71
2022/06/16 03:48:52;;;;;;;5.90;4.37;;;;;;;22.70;39.94;97360.56;5066315;28;20187;-71
2022/06/16 03:51:18;;;;;;;11.00;4.43;;;;;;;22.81;40.24;97366.19;5054473;28;20210;-72
2022/06/16 03:53:45;;;;;;;5.40;4.13;;;;;;;22.87;40.25;97370.63;5060027;28;20179;-72
2022/06/16 03:56:11;;;;;;;5.50;4.40;;;;;;;22.89;39.92;97371.19;5060186;28;20441;-72
2022/06/16 03:58:38;;;;;;;6.80;4.20;;;;;;;22.91;39.75;97377.13;5059625;28;20430;-72
2022/06/16 04:01:04;;;;;;;5.97;4.00;;;;;;;22.92;39.81;97377.97;5055893;28;20866;-71
2022/06/16 04:06:14;;;;;;;5.73;4.70;;;;;;;22.95;40.94;97393.50;5057126;28;20548;-72
2022/06/16 04:08:40;;;;;;;6.53;4.33;;;;;;;22.95;41.55;97390.84;5060572;28;20803;-72
2022/06/16 04:13:51;;;;;;;8.20;4.70;;;;;;;22.97;41.34;97399.44;5060154;28;20501;-71
2022/06/16 04:16:17;;;;;;;4.83;4.40;;;;;;;23.02;41.73;97399.59;5056443;28;20449;-71
2022/06/16 04:18:43;;;;;;;7.53;5.00;;;;;;;23.05;42.00;97396.47;5045858;28;20506;-72
2022/06/16 04:21:12;;;;;;;5.23;4.73;;;;;;;23.09;41.89;97399.50;5050446;28;21042;-71
2022/06/16 04:23:38;;;;;;;6.63;4.37;;;;;;;23.11;41.63;97398.22;5069988;28;20198;-72
2022/06/16 04:26:04;;;;;;;6.63;4.40;;;;;;;23.16;41.23;97394.84;5061426;28;20436;-72
2022/06/16 04:28:29;;;;;;;5.07;4.57;;;;;;;23.16;40.95;97394.84;5062261;28;20518;-71
2022/06/16 04:30:55;;;;;;;5.70;4.83;;;;;;;23.19;41.24;97393.59;5064326;28;20461;-72
2022/06/16 04:33:20;;;;;;;4.33;3.93;;;;;;;23.23;41.13;97411.66;5052931;28;20209;-72
2022/06/16 04:35:46;;;;;;;5.37;4.03;;;;;;;23.23;40.61;97410.81;5056090;28;20182;-72
2022/06/16 04:38:11;;;;;;;4.40;4.00;;;;;;;23.27;40.23;97410.13;5059035;28;20183;-71
2022/06/16 04:40:37;;;;;;;5.53;3.80;;;;;;;23.27;40.49;97406.66;5054163;28;20175;-72
2022/06/16 04:43:02;;;;;;;4.40;4.00;;;;;;;23.30;40.56;97403.53;5055169;28;20203;-72
2022/06/16 04:45:28;;;;;;;4.60;4.13;;;;;;;23.35;41.30;97403.66;5062430;28;20182;-73
2022/06/16 04:47:53;;;;;;;6.07;4.37;;;;;;;23.38;41.83;97411.22;5062567;28;20187;-71
2022/06/16 04:50:19;;;;;;;5.40;4.23;;;;;;;23.39;41.80;97404.81;5058940;28;20210;-71
2022/06/16 04:52:46;;;;;;;4.93;3.80;;;;;;;23.41;41.99;97402.75;5061785;28;20202;-72
2022/06/16 04:55:13;;;;;;;12.40;3.97;;;;;;;23.41;42.81;97408.09;5057963;28;20187;-71
2022/06/16 04:57:39;;;;;;;4.40;4.00;;;;;;;23.39;43.04;97415.53;5063039;28;20773;-71
2022/06/16 05:00:06;;;;;;;5.07;4.47;;;;;;;23.38;43.05;97408.53;5057366;28;20479;-71
2022/06/16 05:02:31;;;;;;;5.37;4.10;;;;;;;23.37;43.16;97416.81;5057544;28;20568;-72
2022/06/16 05:04:57;;;;;;;5.30;4.33;;;;;;;23.31;43.81;97419.34;5051353;28;20460;-72
2022/06/16 05:07:23;;;;;;;5.67;4.30;;;;;;;23.33;43.70;97411.06;5049728;28;20262;-71
2022/06/16 05:09:48;;;;;;;5.40;3.70;;;;;;;23.41;43.16;97415.28;5050013;28;20183;-72
2022/06/16 05:12:14;;;;;;;5.50;4.40;;;;;;;23.40;43.55;97414.47;5052669;28;20260;-73
2022/06/16 05:14:39;;;;;;;5.13;4.63;;;;;;;23.38;44.20;97418.41;5043731;28;20202;-71
2022/06/16 05:17:05;;;;;;;4.47;4.03;;;;;;;23.42;44.67;97419.59;5050081;28;20186;-71
2022/06/16 05:19:31;;;;;;;6.80;4.27;;;;;;;23.47;44.62;97417.03;5050532;28;20233;-72
2022/06/16 05:21:58;;;;;;;6.90;4.10;;;;;;;23.55;44.30;97424.72;5042610;28;20206;-74
2022/06/16 05:24:24;;;;;;;6.40;3.97;;;;;;;23.58;43.60;97418.09;5049558;28;20183;-72
2022/06/16 05:26:50;;;;;;;7.17;4.20;;;;;;;23.67;44.45;97415.88;5048074;28;20436;-73
2022/06/16 05:29:15;;;;;;;4.70;4.00;;;;;;;23.74;44.08;97428.09;5041765;28;20202;-74
2022/06/16 05:31:40;;;;;;;4.30;3.87;;;;;;;23.77;43.79;97432.19;5051272;28;20210;-73
2022/06/16 05:34:06;;;;;;;5.07;3.77;;;;;;;23.69;43.08;97437.88;5052350;28;20198;-72
2022/06/16 05:36:31;;;;;;;5.47;4.17;;;;;;;23.81;43.01;97443.25;5055387;28;20634;-73
2022/06/16 05:38:57;;;;;;;4.47;3.83;;;;;;;23.91;43.00;97448.84;5053989;28;20317;-72
2022/06/16 05:41:22;;;;;;;3.93;3.63;;;;;;;23.95;43.18;97449.97;5059258;28;20647;-71
2022/06/16 05:43:48;;;;;;;5.60;3.83;;;;;;;23.99;42.27;97451.19;5055055;28;20252;-71
2022/06/16 05:46:19;;;;;;;5.70;3.50;;;;;;;24.06;42.18;97448.38;5053598;28;20194;-71
2022/06/16 05:48:44;;;;;;;3.70;3.40;;;;;;;24.16;42.21;97439.78;5054031;28;20179;-72
2022/06/16 05:51:12;;;;;;;4.47;3.80;;;;;;;24.32;41.07;97452.44;5052989;28;20466;-72
2022/06/16 05:53:39;;;;;;;4.00;3.60;;;;;;;24.48;39.89;97458.94;5053697;28;20206;-71
2022/06/16 05:56:04;;;;;;;4.00;3.57;;;;;;;24.58;38.88;97463.69;5052913;28;20430;-71
2022/06/16 05:58:30;;;;;;;5.30;3.90;;;;;;;24.64;37.96;97465.41;5048649;28;20445;-71
2022/06/16 06:00:56;;;;;;;7.23;3.33;;;;;;;24.74;38.26;97469.38;5053559;28;20659;-72
2022/06/16 06:03:21;;;;;;;4.57;3.30;;;;;;;24.80;38.75;97468.44;5059385;28;20203;-73
2022/06/16 06:05:47;;;;;;;6.67;3.50;;;;;;;24.84;38.83;97480.28;5053512;28;20234;-72
2022/06/16 06:16:35;;;;;;;4.70;3.70;;;;;;;25.12;40.78;97473.31;5052065;28;20429;-71
2022/06/16 06:22:00;;;;;;;5.00;3.30;;;;;;;25.35;42.28;97466.22;5045204;28;20445;-70
2022/06/16 06:24:27;;;;;;;5.63;3.53;;;;;;;25.50;41.80;97461.16;5052888;28;20491;-72
2022/06/16 06:26:53;;;;;;;4.67;3.47;;;;;;;25.60;39.52;97464.00;5052836;28;20450;-71
2022/06/16 06:29:19;;;;;;;3.67;3.37;;;;;;;25.74;38.87;97469.88;5051328;28;20458;-72
2022/06/16 06:31:44;;;;;;;3.43;3.10;;;;;;;25.89;37.36;97457.75;5053393;28;20219;-70
2022/06/16 06:34:10;;;;;;;4.43;3.50;;;;;;;26.04;36.86;97462.53;5053018;28;20191;-73
2022/06/16 06:36:35;;;;;;;5.23;3.30;;;;;;;26.18;36.91;97465.69;5056551;28;20205;-73
2022/06/16 06:39:01;;;;;;;3.30;3.00;;;;;;;26.37;37.22;97466.22;5053959;28;20179;-71
2022/06/16 06:41:26;;;;;;;6.93;3.30;;;;;;;26.53;36.99;97473.44;5054102;28;20183;-71
2022/06/16 06:43:52;;;;;;;4.00;3.70;;;;;;;26.67;36.00;97465.78;5049156;28;20191;-72
2022/06/16 06:46:17;;;;;;;3.87;3.57;;;;;;;26.85;35.41;97474.63;5052693;28;20191;-71
2022/06/16 06:48:43;;;;;;;5.00;3.13;;;;;;;26.98;34.44;97476.13;5053487;28;20187;-72
2022/06/16 06:51:09;;;;;;;5.10;3.50;;;;;;;27.10;34.66;97481.38;5053926;28;20257;-71
2022/06/16 06:53:34;;;;;;;7.57;3.67;;;;;;;27.27;34.27;97479.41;5053656;28;20207;-73
2022/06/16 06:56:00;;;;;;;4.17;3.00;;;;;;;27.41;33.31;97484.34;5052952;28;20182;-72
2022/06/16 06:58:25;;;;;;;4.23;2.87;;;;;;;27.59;33.82;97480.53;5060401;28;20190;-72
2022/06/16 07:00:53;;;;;;;3.40;3.10;;;;;;;27.71;33.42;97475.78;5051252;28;20209;-72
2022/06/16 07:03:20;;;;;;;5.40;3.30;;;;;;;27.69;32.90;97475.22;5050349;28;20214;-73
2022/06/16 07:05:46;;;;;;;3.07;2.83;;;;;;;27.60;32.95;97468.66;5048408;28;20425;-71
2022/06/16 07:08:12;;;;;;;4.93;3.30;;;;;;;27.56;32.96;97481.03;5058239;28;20444;-70
2022/06/16 07:10:39;;;;;;;6.77;3.40;;;;;;;27.53;33.58;97478.84;5051269;28;20465;-71
2022/06/16 07:13:04;;;;;;;5.33;3.10;;;;;;;27.60;34.50;97482.13;5046501;28;20286;-71
2022/06/16 07:15:30;;;;;;;4.00;3.47;;;;;;;27.68;34.19;97481.66;5052731;28;20527;-72
2022/06/16 07:17:56;;;;;;;3.73;3.33;;;;;;;27.80;33.96;97491.44;5052184;28;20189;-72
2022/06/16 07:20:21;;;;;;;10.10;3.70;;;;;;;27.96;33.84;97498.59;5050977;28;20183;-72
2022/06/16 07:22:47;;;;;;;4.70;4.00;;;;;;;28.17;33.75;97513.00;5052537;28;20318;-72
2022/06/16 07:25:13;;;;;;;4.30;3.90;;;;;;;28.38;34.05;97513.16;5052088;28;20338;-72
2022/06/16 07:27:39;;;;;;;6.60;3.90;;;;;;;28.59;33.99;97514.06;5052430;28;20183;-72
2022/06/16 07:30:14;;;;;;;3.87;3.47;;;;;;;28.76;33.35;97513.91;5050059;28;20516;-71
2022/06/16 07:32:43;;;;;;;3.63;3.33;;;;;;;28.87;31.89;97509.34;5052402;28;20235;-72
2022/06/16 07:35:09;;;;;;;7.87;3.20;;;;;;;28.93;31.70;97519.09;5055453;28;20436;-72
2022/06/16 07:37:35;;;;;;;3.67;3.10;;;;;;;28.85;32.04;97524.19;5049923;28;20430;-71
2022/06/16 07:40:01;;;;;;;10.53;3.40;;;;;;;28.87;32.42;97530.94;5035996;28;20504;-71
2022/06/16 07:42:27;;;;;;;4.63;3.20;;;;;;;28.83;33.28;97529.03;5052230;28;20514;-71
2022/06/16 07:44:53;;;;;;;4.53;3.20;;;;;;;28.79;33.30;97534.97;5042677;28;20462;-71
2022/06/16 07:47:20;;;;;;;7.83;3.50;;;;;;;28.80;33.96;97530.38;5044397;28;20694;-72
2022/06/16 07:49:48;;;;;;;4.57;4.17;;;;;;;28.81;33.84;97534.69;5037309;28;20677;-72
2022/06/16 07:52:14;;;;;;;6.20;4.20;;;;;;;28.85;33.42;97538.50;5047388;28;20478;-71
2022/06/16 07:54:40;;;;;;;7.10;4.40;;;;;;;28.95;33.21;97535.84;5039452;28;20427;-73
2022/06/16 07:57:05;;;;;;;7.83;4.47;;;;;;;29.08;33.13;97542.59;5046981;28;20541;-73
2022/06/16 07:59:31;;;;;;;3.90;3.60;;;;;;;29.24;33.01;97548.84;5044459;28;20182;-72
2022/06/16 08:01:57;;;;;;;4.93;3.40;;;;;;;29.41;33.38;97545.97;5042570;28;20200;-72
2022/06/16 08:04:23;;;;;;;4.83;3.33;;;;;;;29.56;32.75;97550.59;5045021;28;20185;-73
2022/06/16 08:06:49;;;;;;;5.87;3.77;;;;;;;29.77;32.65;97556.00;5035156;28;20613;-73
2022/06/16 08:09:15;;;;;;;10.07;3.83;;;;;;;29.88;32.21;97557.63;5045706;28;20437;-72
2022/06/16 08:14:24;;;;;;;5.60;3.50;;;;;;;30.10;32.64;97567.41;5050740;28;20607;-73
2022/06/16 08:16:50;;;;;;;6.33;3.30;;;;;;;30.23;32.56;97563.31;5042282;28;20422;-73
2022/06/16 08:19:16;;;;;;;4.13;3.73;;;;;;;30.34;32.55;97558.72;5044091;28;20180;-72
2022/06/16 08:21:41;;;;;;;3.97;3.57;;;;;;;30.44;32.06;97560.59;5051820;28;20260;-73
2022/06/16 08:24:07;;;;;;;12.40;9.80;;;;;;;30.59;31.75;97567.91;5046934;28;20175;-71
2022/06/16 08:26:34;;;;;;;5.67;3.90;;;;;;;30.67;30.07;97567.34;5052253;28;20229;-71
2022/06/16 08:28:59;;;;;;;6.70;3.93;;;;;;;30.78;29.98;97585.16;5052347;28;20263;-73
2022/06/16 08:31:25;;;;;;;7.03;3.77;;;;;;;30.90;30.75;97584.84;5050690;28;20555;-72
2022/06/16 08:33:52;;;;;;;5.70;4.77;;;;;;;31.05;30.47;97577.78;5050656;28;20191;-71
2022/06/16 08:36:20;;;;;;;8.53;4.10;;;;;;;31.14;30.42;97578.84;5052631;28;20217;-70
2022/06/16 08:38:46;;;;;;;5.57;3.80;;;;;;;31.15;31.06;97571.50;5051038;28;20465;-71
2022/06/16 08:41:17;;;;;;;4.77;3.67;;;;;;;31.22;31.06;97585.56;5054337;28;20467;-70
2022/06/16 08:44:11;;;;;;;9.43;3.83;;;;;;;31.35;30.23;97579.53;5050987;28;20631;-71
2022/06/16 08:46:42;;;;;;;8.70;3.50;;;;;;;31.25;29.03;97590.44;5035654;28;20437;-70
2022/06/16 08:49:46;;;;;;;5.83;3.90;;;;;;;31.30;29.61;97600.41;5049357;28;20471;-71
2022/06/16 08:52:11;;;;;;;4.00;3.67;;;;;;;31.38;29.14;97602.53;5048558;28;20464;-71
2022/06/16 08:54:44;;;;;;;5.97;3.67;;;;;;;31.46;29.21;97609.28;5042992;28;20445;-71
2022/06/16 08:57:17;;;;;;;7.00;4.07;;;;;;;31.56;28.80;97612.75;5045926;28;20183;-69
2022/06/16 08:59:53;;;;;;;8.53;3.13;;;;;;;31.60;28.27;97604.03;5038385;28;20516;-72
2022/06/16 09:02:28;;;;;;;7.33;3.70;;;;;;;31.65;27.86;97604.81;5041329;28;20449;-72
2022/06/16 09:05:05;;;;;;;5.57;3.60;;;;;;;31.76;27.86;97604.78;5034582;28;20453;-71
2022/06/16 09:07:41;;;;;;;8.90;3.33;;;;;;;31.81;27.97;97608.28;5037900;28;20479;-71
2022/06/16 09:10:55;;;;;;;5.23;3.20;;;;;;;31.84;27.71;97612.31;5042446;28;20802;-72
2022/06/16 09:14:00;;;;;;;3.57;3.00;;;;;;;31.88;27.41;97610.69;5025774;28;20556;-72
2022/06/16 09:16:40;;;;;;;12.60;3.27;;;;;;;32.08;27.52;97617.81;5046615;28;20531;-72
2022/06/16 09:19:30;;;;;;;10.60;3.10;;;;;;;32.21;27.10;97608.25;5043615;28;20944;-72
2022/06/16 09:22:17;;;;;;;4.60;2.80;;;;;;;32.28;26.57;97616.06;5043064;28;20453;-72
2022/06/16 09:24:57;;;;;;;3.40;3.07;;;;;;;32.25;26.49;97612.03;5042125;28;20426;-72
2022/06/16 09:27:32;;;;;;;3.90;3.10;;;;;;;32.42;26.22;97616.22;5041716;28;20425;-72
2022/06/16 09:30:04;;;;;;;5.33;3.30;;;;;;;32.44;25.96;97614.84;5041095;28;20460;-72
2022/06/16 09:32:36;;;;;;;5.33;2.77;;;;;;;32.53;26.43;97612.31;5046897;28;20543;-71
2022/06/16 09:35:12;;;;;;;4.40;3.30;;;;;;;32.69;26.53;97609.44;5017830;28;20444;-72
2022/06/16 09:38:02;;;;;;;3.40;2.97;;;;;;;32.83;26.31;97613.13;5039917;28;20441;-72
2022/06/16 09:40:33;;;;;;;4.90;2.97;;;;;;;32.96;26.23;97608.91;5038700;28;20445;-71
2022/06/16 09:43:14;;;;;;;4.97;3.00;;;;;;;33.02;25.76;97610.47;5044029;28;20572;-70
2022/06/16 09:45:46;;;;;;;7.27;2.77;;;;;;;33.07;25.03;97609.59;5045354;28;20457;-70
2022/06/16 09:48:22;;;;;;;4.90;3.20;;;;;;;33.09;25.77;97607.41;5046721;28;20446;-71
2022/06/16 09:50:57;;;;;;;6.03;3.00;;;;;;;33.07;25.90;97615.03;5033738;28;20449;-70
2022/06/16 09:53:47;;;;;;;5.30;3.40;;;;;;;33.22;26.00;97612.13;5036635;28;20801;-71
2022/06/16 09:56:39;;;;;;;5.23;3.07;;;;;;;33.34;25.20;97608.19;5036061;28;20956;-71
2022/06/16 09:59:14;;;;;;;3.80;2.90;;;;;;;33.47;25.75;97618.34;5044841;28;20415;-71
2022/06/16 10:01:51;;;;;;;4.40;3.10;;;;;;;33.49;25.06;97616.16;5041887;28;20425;-71
2022/06/16 10:04:16;;;;;;;4.40;3.03;;;;;;;33.52;25.19;97623.69;5043874;28;20484;-71
2022/06/16 10:06:57;;;;;;;3.50;3.07;;;;;;;33.68;24.83;97624.31;5043094;28;20419;-71
2022/06/16 10:09:44;;;;;;;3.40;3.17;;;;;;;33.75;25.78;97626.66;5050358;28;20232;-71
2022/06/16 10:12:23;;;;;;;4.30;2.93;;;;;;;33.79;25.54;97630.38;5041601;28;20985;-70
2022/06/16 10:15:14;;;;;;;5.40;3.10;;;;;;;33.92;25.68;97633.50;5041603;28;20838;-72
2022/06/16 10:17:42;;;;;;;8.43;3.20;;;;;;;34.04;26.32;97642.00;5042852;28;20830;-72
2022/06/16 10:20:10;;;;;;;6.93;2.90;;;;;;;34.03;25.13;97640.38;5042019;28;20425;-71
2022/06/16 10:22:38;;;;;;;6.23;3.00;;;;;;;34.10;25.38;97650.88;5034886;28;20446;-71
2022/06/16 10:25:05;;;;;;;6.00;3.30;;;;;;;34.13;25.35;97651.13;5051598;28;20452;-71
2022/06/16 10:27:44;;;;;;;5.53;3.03;;;;;;;34.18;26.09;97650.22;5051348;28;21136;-70
2022/06/16 10:30:25;;;;;;;5.03;3.20;;;;;;;34.12;25.12;97656.84;5052800;28;20808;-71
2022/06/16 10:33:17;;;;;;;4.20;3.17;;;;;;;34.21;25.94;97652.38;5052687;28;20447;-71
2022/06/16 10:35:50;;;;;;;5.73;3.27;;;;;;;34.37;25.36;97658.34;5066361;28;20417;-71
2022/06/16 10:38:22;;;;;;;4.63;2.87;;;;;;;34.45;25.27;97668.56;5050971;28;20508;-73
2022/06/16 10:40:47;;;;;;;4.43;3.10;;;;;;;34.55;26.01;97672.22;5053253;28;20421;-71
2022/06/16 10:43:15;;;;;;;3.57;3.00;;;;;;;34.63;25.62;97662.56;5055093;28;20967;-72
2022/06/16 10:45:40;;;;;;;7.07;3.03;;;;;;;34.66;25.90;97672.84;5051450;28;20634;-72
2022/06/16 10:48:32;;;;;;;3.60;3.23;;;;;;;34.71;25.76;97670.06;5050804;28;20437;-73
2022/06/16 10:51:07;;;;;;;6.47;2.90;;;;;;;34.73;26.21;97678.69;5052408;28;20211;-71
2022/06/16 10:53:36;;;;;;;4.10;3.30;;;;;;;34.79;25.69;97684.84;5051087;28;20811;-71
2022/06/16 10:56:10;;;;;;;10.20;3.00;;;;;;;34.72;25.16;97686.06;5050732;28;20832;-71
2022/06/16 10:58:49;;;;;;;7.00;2.87;;;;;;;34.79;25.53;97682.13;5052294;28;20471;-71
2022/06/16 11:01:21;;;;;;;11.97;2.90;;;;;;;34.87;25.72;97689.63;5048310;28;20425;-71
2022/06/16 11:04:03;;;;;;;5.27;2.97;;;;;;;34.91;25.10;97690.63;5057260;28;20897;-71
2022/06/16 11:06:29;;;;;;;3.27;2.90;;;;;;;34.88;25.87;97704.84;5045063;28;20426;-71
2022/06/16 11:09:03;;;;;;;5.40;2.77;;;;;;;34.87;25.41;97692.34;5051265;28;20421;-71
2022/06/16 11:11:40;;;;;;;4.40;3.30;;;;;;;34.82;25.57;97690.53;5049754;28;20511;-70
2022/06/16 11:14:14;;;;;;;6.53;3.37;;;;;;;34.84;25.95;97701.94;5047573;28;20880;-72
2022/06/16 11:16:47;;;;;;;4.47;3.10;;;;;;;34.72;25.40;97694.25;5033053;28;21113;-71
2022/06/16 11:19:22;;;;;;;4.70;3.10;;;;;;;34.78;25.66;97700.41;5051847;28;20493;-71
2022/06/16 11:21:48;;;;;;;3.30;3.00;;;;;;;34.79;24.76;97706.63;5028258;28;20445;-71
2022/06/16 11:24:30;;;;;;;6.17;3.13;;;;;;;34.83;24.71;97716.66;5051433;28;20441;-72
2022/06/16 11:27:07;;;;;;;6.57;3.13;;;;;;;34.89;25.21;97711.91;5055600;28;20195;-71
2022/06/16 11:29:35;;;;;;;3.70;2.77;;;;;;;34.98;25.53;97726.47;5041935;28;20445;-73
2022/06/16 11:32:06;;;;;;;3.67;2.80;;;;;;;35.09;25.50;97715.38;5050836;28;20464;-71
2022/06/16 11:34:32;;;;;;;4.10;3.03;;;;;;;35.19;25.11;97728.81;5049885;28;20428;-72
2022/06/16 11:37:07;;;;;;;5.53;3.23;;;;;;;35.06;24.67;97720.31;5054195;28;20459;-72
2022/06/16 11:39:51;;;;;;;4.80;3.20;;;;;;;35.21;25.02;97726.59;5048405;28;20451;-72
2022/06/16 11:42:25;;;;;;;3.73;2.70;;;;;;;35.19;24.72;97720.63;5056098;28;20878;-72
2022/06/16 11:45:05;;;;;;;8.13;3.00;;;;;;;35.05;23.92;97726.88;5045779;28;20428;-71
2022/06/16 11:47:34;;;;;;;5.97;2.73;;;;;;;35.04;24.01;97727.97;5051110;28;20429;-71
2022/06/16 11:50:18;;;;;;;2.63;2.43;;;;;;;35.05;23.85;97732.31;5051055;28;20788;-71
2022/06/16 11:52:59;;;;;;;8.03;2.90;;;;;;;35.09;24.22;97729.00;5046358;28;20449;-71
2022/06/16 11:55:46;;;;;;;3.07;2.77;;;;;;;35.01;24.01;97716.88;5050594;28;20572;-71
2022/06/16 11:58:39;;;;;;;6.80;2.97;;;;;;;34.78;25.00;97719.44;5050223;28;20428;-71
2022/06/16 12:01:12;;;;;;;7.73;3.17;;;;;;;34.83;25.17;97715.81;5050207;28;20784;-71
2022/06/16 12:03:56;;;;;;;3.33;2.63;;;;;;;34.78;24.91;97714.00;5049951;28;20446;-71
2022/06/16 12:06:42;;;;;;;3.00;2.77;;;;;;;34.92;25.03;97708.59;5050204;28;20437;-71
2022/06/16 12:09:33;;;;;;;3.63;2.97;;;;;;;34.98;24.27;97707.41;5051537;28;20451;-72
2022/06/16 12:12:10;;;;;;;5.90;2.67;;;;;;;35.03;24.19;97715.47;5053531;28;20551;-72
2022/06/16 12:14:41;;;;;;;5.43;2.80;;;;;;;34.90;24.50;97711.59;5044611;28;20924;-73
2022/06/16 12:17:25;;;;;;;4.47;3.20;;;;;;;34.80;24.29;97719.97;5050295;28;20426;-72